sensor_id;sensor_type;location;lat;lon;timestamp;temperature;humidity
48007;DHT22;33771;48.180;11.400;2023-08-31T00:02:21;13.00;99.90
48007;DHT22;33771;48.180;11.400;2023-08-31T00:04:46;12.90;99.90
48007;DHT22;33771;48.180;11.400;2023-08-31T00:07:12;12.90;99.90
48007;DHT22;33771;48.180;11.400;2023-08-31T00:09:37;12.90;99.90
48007;DHT22;33771;48.180;11.400;2023-08-31T00:12:04;12.90;99.90
48007;DHT22;33771;48.180;11.400;2023-08-31T00:14:30;12.80;99.90
48007;DHT22;33771;48.180;11.400;2023-08-31T00:16:58;12.80;99.90
48007;DHT22;33771;48.180;11.400;2023-08-31T00:19:23;12.80;99.90
48007;DHT22;33771;48.180;11.400;2023-08-31T00:21:49;12.80;99.90
48007;DHT22;33771;48.180;11.400;2023-08-31T00:24:14;12.80;99.90
48007;DHT22;33771;48.180;11.400;2023-08-31T00:26:40;12.80;99.90
48007;DHT22;33771;48.180;11.400;2023-08-31T00:29:09;12.70;99.90
48007;DHT22;33771;48.180;11.400;2023-08-31T00:31:36;12.70;99.90
48007;DHT22;33771;48.180;11.400;2023-08-31T00:34:02;12.60;99.90
48007;DHT22;33771;48.180;11.400;2023-08-31T00:36:29;12.60;99.90
48007;DHT22;33771;48.180;11.400;2023-08-31T00:38:54;12.60;99.90
48007;DHT22;33771;48.180;11.400;2023-08-31T00:41:22;12.50;99.90
48007;DHT22;33771;48.180;11.400;2023-08-31T00:43:47;12.50;99.90
48007;DHT22;33771;48.180;11.400;2023-08-31T00:46:14;12.50;99.90
48007;DHT22;33771;48.180;11.400;2023-08-31T00:48:40;12.50;99.90
48007;DHT22;33771;48.180;11.400;2023-08-31T00:51:07;12.40;99.90
48007;DHT22;33771;48.180;11.400;2023-08-31T00:53:33;12.40;99.90
48007;DHT22;33771;48.180;11.400;2023-08-31T00:56:00;12.40;99.90
48007;DHT22;33771;48.180;11.400;2023-08-31T00:58:26;12.40;99.90
48007;DHT22;33771;48.180;11.400;2023-08-31T01:06:15;12.40;99.90
48007;DHT22;33771;48.180;11.400;2023-08-31T01:08:53;12.30;99.90
48007;DHT22;33771;48.180;11.400;2023-08-31T01:14:14;12.30;99.90
48007;DHT22;33771;48.180;11.400;2023-08-31T01:16:42;12.30;99.90
48007;DHT22;33771;48.180;11.400;2023-08-31T01:19:29;12.30;99.90
48007;DHT22;33771;48.180;11.400;2023-08-31T01:21:59;12.30;99.90
48007;DHT22;33771;48.180;11.400;2023-08-31T01:24:26;12.30;99.90
48007;DHT22;33771;48.180;11.400;2023-08-31T01:26:52;12.30;99.90
48007;DHT22;33771;48.180;11.400;2023-08-31T01:29:18;12.40;99.90
48007;DHT22;33771;48.180;11.400;2023-08-31T01:31:44;12.40;99.90
48007;DHT22;33771;48.180;11.400;2023-08-31T01:34:13;12.40;99.90
48007;DHT22;33771;48.180;11.400;2023-08-31T01:36:42;12.50;99.90
48007;DHT22;33771;48.180;11.400;2023-08-31T01:39:39;12.50;99.90
48007;DHT22;33771;48.180;11.400;2023-08-31T01:42:08;12.60;99.90
48007;DHT22;33771;48.180;11.400;2023-08-31T01:44:36;12.60;99.90
48007;DHT22;33771;48.180;11.400;2023-08-31T01:47:04;12.70;99.90
48007;DHT22;33771;48.180;11.400;2023-08-31T01:49:38;12.70;99.90
48007;DHT22;33771;48.180;11.400;2023-08-31T01:52:04;12.80;99.90
48007;DHT22;33771;48.180;11.400;2023-08-31T01:54:30;12.80;99.90
48007;DHT22;33771;48.180;11.400;2023-08-31T01:56:56;12.90;99.90
48007;DHT22;33771;48.180;11.400;2023-08-31T01:59:22;12.90;99.90
48007;DHT22;33771;48.180;11.400;2023-08-31T02:01:47;13.00;99.90
48007;DHT22;33771;48.180;11.400;2023-08-31T02:04:13;13.00;99.90
48007;DHT22;33771;48.180;11.400;2023-08-31T02:06:38;13.00;99.90
48007;DHT22;33771;48.180;11.400;2023-08-31T02:09:04;13.10;99.90
48007;DHT22;33771;48.180;11.400;2023-08-31T02:11:31;13.10;99.90
48007;DHT22;33771;48.180;11.400;2023-08-31T02:13:57;13.10;99.90
48007;DHT22;33771;48.180;11.400;2023-08-31T02:16:23;13.10;99.90
48007;DHT22;33771;48.180;11.400;2023-08-31T02:18:49;13.20;99.90
48007;DHT22;33771;48.180;11.400;2023-08-31T02:21:15;13.20;99.90
48007;DHT22;33771;48.180;11.400;2023-08-31T02:23:40;13.10;99.90
48007;DHT22;33771;48.180;11.400;2023-08-31T02:26:06;13.10;99.90
48007;DHT22;33771;48.180;11.400;2023-08-31T02:28:31;13.10;99.90
48007;DHT22;33771;48.180;11.400;2023-08-31T02:30:58;13.10;99.90
48007;DHT22;33771;48.180;11.400;2023-08-31T02:33:25;13.10;99.90
48007;DHT22;33771;48.180;11.400;2023-08-31T02:35:50;13.10;99.90
48007;DHT22;33771;48.180;11.400;2023-08-31T02:38:16;13.10;99.90
48007;DHT22;33771;48.180;11.400;2023-08-31T02:40:41;13.10;99.90
48007;DHT22;33771;48.180;11.400;2023-08-31T02:43:07;13.00;99.90
48007;DHT22;33771;48.180;11.400;2023-08-31T02:45:32;13.00;99.90
48007;DHT22;33771;48.180;11.400;2023-08-31T02:47:58;13.00;99.90
48007;DHT22;33771;48.180;11.400;2023-08-31T02:50:24;12.90;99.90
48007;DHT22;33771;48.180;11.400;2023-08-31T02:52:49;12.90;99.90
48007;DHT22;33771;48.180;11.400;2023-08-31T02:55:15;12.90;99.90
48007;DHT22;33771;48.180;11.400;2023-08-31T02:57:41;12.90;99.90
48007;DHT22;33771;48.180;11.400;2023-08-31T03:00:06;12.80;99.90
48007;DHT22;33771;48.180;11.400;2023-08-31T03:02:36;12.80;99.90
48007;DHT22;33771;48.180;11.400;2023-08-31T03:05:02;12.80;99.90
48007;DHT22;33771;48.180;11.400;2023-08-31T03:07:28;12.80;99.90
48007;DHT22;33771;48.180;11.400;2023-08-31T03:09:54;12.80;99.90
48007;DHT22;33771;48.180;11.400;2023-08-31T03:12:19;12.80;99.90
48007;DHT22;33771;48.180;11.400;2023-08-31T03:14:45;12.80;99.90
48007;DHT22;33771;48.180;11.400;2023-08-31T03:17:11;12.80;99.90
48007;DHT22;33771;48.180;11.400;2023-08-31T03:19:36;12.80;99.90
48007;DHT22;33771;48.180;11.400;2023-08-31T03:22:02;12.80;99.90
48007;DHT22;33771;48.180;11.400;2023-08-31T03:24:27;12.80;99.90
48007;DHT22;33771;48.180;11.400;2023-08-31T03:26:53;12.70;99.90
48007;DHT22;33771;48.180;11.400;2023-08-31T03:29:18;12.70;99.90
48007;DHT22;33771;48.180;11.400;2023-08-31T03:31:44;12.70;99.90
48007;DHT22;33771;48.180;11.400;2023-08-31T03:34:09;12.70;99.90
48007;DHT22;33771;48.180;11.400;2023-08-31T03:36:35;12.70;99.90
48007;DHT22;33771;48.180;11.400;2023-08-31T03:39:01;12.70;99.90
48007;DHT22;33771;48.180;11.400;2023-08-31T03:41:27;12.70;99.90
48007;DHT22;33771;48.180;11.400;2023-08-31T03:43:52;12.70;99.90
48007;DHT22;33771;48.180;11.400;2023-08-31T03:46:18;12.70;99.90
48007;DHT22;33771;48.180;11.400;2023-08-31T03:48:43;12.70;99.90
48007;DHT22;33771;48.180;11.400;2023-08-31T03:51:09;12.70;99.90
48007;DHT22;33771;48.180;11.400;2023-08-31T03:53:34;12.70;99.90
48007;DHT22;33771;48.180;11.400;2023-08-31T03:56:00;12.70;99.90
48007;DHT22;33771;48.180;11.400;2023-08-31T03:58:25;12.70;99.90
48007;DHT22;33771;48.180;11.400;2023-08-31T04:00:51;12.70;99.90
48007;DHT22;33771;48.180;11.400;2023-08-31T04:03:17;12.60;99.90
48007;DHT22;33771;48.180;11.400;2023-08-31T04:05:43;12.60;99.90
48007;DHT22;33771;48.180;11.400;2023-08-31T04:08:08;12.60;99.90
48007;DHT22;33771;48.180;11.400;2023-08-31T04:10:34;12.60;99.90
48007;DHT22;33771;48.180;11.400;2023-08-31T04:12:59;12.60;99.90
48007;DHT22;33771;48.180;11.400;2023-08-31T04:15:25;12.60;99.90
48007;DHT22;33771;48.180;11.400;2023-08-31T04:17:51;12.60;99.90
48007;DHT22;33771;48.180;11.400;2023-08-31T04:20:17;12.60;99.90
48007;DHT22;33771;48.180;11.400;2023-08-31T04:22:43;12.60;99.90
48007;DHT22;33771;48.180;11.400;2023-08-31T04:25:08;12.60;99.90
48007;DHT22;33771;48.180;11.400;2023-08-31T04:27:34;12.50;99.90
48007;DHT22;33771;48.180;11.400;2023-08-31T04:30:00;12.50;99.90
48007;DHT22;33771;48.180;11.400;2023-08-31T04:32:26;12.50;99.90
48007;DHT22;33771;48.180;11.400;2023-08-31T04:34:52;12.40;99.90
48007;DHT22;33771;48.180;11.400;2023-08-31T04:37:18;12.40;99.90
48007;DHT22;33771;48.180;11.400;2023-08-31T04:39:44;12.40;99.90
48007;DHT22;33771;48.180;11.400;2023-08-31T04:42:09;12.30;99.90
48007;DHT22;33771;48.180;11.400;2023-08-31T04:44:35;12.30;99.90
48007;DHT22;33771;48.180;11.400;2023-08-31T04:47:00;12.30;99.90
48007;DHT22;33771;48.180;11.400;2023-08-31T04:49:26;12.30;99.90
48007;DHT22;33771;48.180;11.400;2023-08-31T04:51:52;12.30;99.90
48007;DHT22;33771;48.180;11.400;2023-08-31T04:54:18;12.30;99.90
48007;DHT22;33771;48.180;11.400;2023-08-31T04:56:44;12.30;99.90
48007;DHT22;33771;48.180;11.400;2023-08-31T04:59:09;12.30;99.90
48007;DHT22;33771;48.180;11.400;2023-08-31T05:01:35;12.30;99.90
48007;DHT22;33771;48.180;11.400;2023-08-31T05:04:02;12.30;99.90
48007;DHT22;33771;48.180;11.400;2023-08-31T05:06:28;12.40;99.90
48007;DHT22;33771;48.180;11.400;2023-08-31T05:08:53;12.40;99.90
48007;DHT22;33771;48.180;11.400;2023-08-31T05:11:19;12.40;99.90
48007;DHT22;33771;48.180;11.400;2023-08-31T05:13:44;12.40;99.90
48007;DHT22;33771;48.180;11.400;2023-08-31T05:16:10;12.50;99.90
48007;DHT22;33771;48.180;11.400;2023-08-31T05:18:36;12.50;99.90
48007;DHT22;33771;48.180;11.400;2023-08-31T05:21:02;12.60;99.90
48007;DHT22;33771;48.180;11.400;2023-08-31T05:23:29;12.60;99.90
48007;DHT22;33771;48.180;11.400;2023-08-31T05:25:54;12.60;99.90
48007;DHT22;33771;48.180;11.400;2023-08-31T05:28:22;12.60;99.90
48007;DHT22;33771;48.180;11.400;2023-08-31T05:30:52;12.70;99.90
48007;DHT22;33771;48.180;11.400;2023-08-31T05:33:19;12.70;99.90
48007;DHT22;33771;48.180;11.400;2023-08-31T05:35:45;12.70;99.90
48007;DHT22;33771;48.180;11.400;2023-08-31T05:38:11;12.80;99.90
48007;DHT22;33771;48.180;11.400;2023-08-31T05:40:36;12.80;99.90
48007;DHT22;33771;48.180;11.400;2023-08-31T05:43:02;12.90;99.90
48007;DHT22;33771;48.180;11.400;2023-08-31T05:45:34;13.00;99.90
48007;DHT22;33771;48.180;11.400;2023-08-31T05:48:00;13.00;99.90
48007;DHT22;33771;48.180;11.400;2023-08-31T05:50:26;13.10;99.90
48007;DHT22;33771;48.180;11.400;2023-08-31T05:52:52;13.20;99.90
48007;DHT22;33771;48.180;11.400;2023-08-31T05:55:18;13.20;99.90
48007;DHT22;33771;48.180;11.400;2023-08-31T05:57:43;13.30;99.90
48007;DHT22;33771;48.180;11.400;2023-08-31T06:00:09;13.30;99.90
48007;DHT22;33771;48.180;11.400;2023-08-31T06:02:35;13.30;99.90
48007;DHT22;33771;48.180;11.400;2023-08-31T06:05:01;13.40;99.90
48007;DHT22;33771;48.180;11.400;2023-08-31T06:07:27;13.40;99.90
48007;DHT22;33771;48.180;11.400;2023-08-31T06:09:54;13.50;99.90
48007;DHT22;33771;48.180;11.400;2023-08-31T06:12:20;13.50;99.90
48007;DHT22;33771;48.180;11.400;2023-08-31T06:14:46;13.60;99.90
48007;DHT22;33771;48.180;11.400;2023-08-31T06:17:11;13.60;99.90
48007;DHT22;33771;48.180;11.400;2023-08-31T06:19:39;13.60;99.90
48007;DHT22;33771;48.180;11.400;2023-08-31T06:22:04;13.60;99.90
48007;DHT22;33771;48.180;11.400;2023-08-31T06:24:30;13.60;99.90
48007;DHT22;33771;48.180;11.400;2023-08-31T06:26:55;13.60;99.90
48007;DHT22;33771;48.180;11.400;2023-08-31T06:29:22;13.60;99.90
48007;DHT22;33771;48.180;11.400;2023-08-31T06:31:47;13.60;99.90
48007;DHT22;33771;48.180;11.400;2023-08-31T06:34:13;13.60;99.90
48007;DHT22;33771;48.180;11.400;2023-08-31T06:36:38;13.70;99.90
48007;DHT22;33771;48.180;11.400;2023-08-31T06:39:06;13.70;99.90
48007;DHT22;33771;48.180;11.400;2023-08-31T06:41:31;13.70;99.90
48007;DHT22;33771;48.180;11.400;2023-08-31T06:43:57;13.70;99.90
48007;DHT22;33771;48.180;11.400;2023-08-31T06:46:22;13.80;99.90
48007;DHT22;33771;48.180;11.400;2023-08-31T06:48:48;13.80;99.90
48007;DHT22;33771;48.180;11.400;2023-08-31T06:51:14;13.90;99.90
48007;DHT22;33771;48.180;11.400;2023-08-31T06:53:44;14.00;99.90
48007;DHT22;33771;48.180;11.400;2023-08-31T06:56:09;14.10;99.90
48007;DHT22;33771;48.180;11.400;2023-08-31T06:58:35;14.20;99.90
48007;DHT22;33771;48.180;11.400;2023-08-31T07:01:05;14.30;99.90
48007;DHT22;33771;48.180;11.400;2023-08-31T07:03:30;14.40;99.90
48007;DHT22;33771;48.180;11.400;2023-08-31T07:05:56;14.50;99.90
48007;DHT22;33771;48.180;11.400;2023-08-31T07:08:22;14.50;99.90
48007;DHT22;33771;48.180;11.400;2023-08-31T07:10:49;14.70;99.90
48007;DHT22;33771;48.180;11.400;2023-08-31T07:13:15;14.70;99.90
48007;DHT22;33771;48.180;11.400;2023-08-31T07:15:41;14.80;99.90
48007;DHT22;33771;48.180;11.400;2023-08-31T07:18:06;14.80;99.90
48007;DHT22;33771;48.180;11.400;2023-08-31T07:20:33;14.90;99.90
48007;DHT22;33771;48.180;11.400;2023-08-31T07:22:58;14.90;99.90
48007;DHT22;33771;48.180;11.400;2023-08-31T07:25:25;15.00;99.90
48007;DHT22;33771;48.180;11.400;2023-08-31T07:27:50;15.00;99.90
48007;DHT22;33771;48.180;11.400;2023-08-31T07:30:16;15.10;99.90
48007;DHT22;33771;48.180;11.400;2023-08-31T07:32:41;15.20;99.90
48007;DHT22;33771;48.180;11.400;2023-08-31T07:35:07;15.20;99.90
48007;DHT22;33771;48.180;11.400;2023-08-31T07:37:33;15.20;99.90
48007;DHT22;33771;48.180;11.400;2023-08-31T07:39:58;15.30;99.90
48007;DHT22;33771;48.180;11.400;2023-08-31T07:42:24;15.30;99.90
48007;DHT22;33771;48.180;11.400;2023-08-31T07:44:50;15.30;99.90
48007;DHT22;33771;48.180;11.400;2023-08-31T07:47:15;15.30;99.90
48007;DHT22;33771;48.180;11.400;2023-08-31T07:49:41;15.30;99.90
48007;DHT22;33771;48.180;11.400;2023-08-31T07:52:06;15.30;99.90
48007;DHT22;33771;48.180;11.400;2023-08-31T07:54:32;15.20;99.90
48007;DHT22;33771;48.180;11.400;2023-08-31T07:56:57;15.30;99.90
48007;DHT22;33771;48.180;11.400;2023-08-31T07:59:23;15.30;99.90
48007;DHT22;33771;48.180;11.400;2023-08-31T08:01:48;15.40;99.90
48007;DHT22;33771;48.180;11.400;2023-08-31T08:04:14;15.40;99.90
48007;DHT22;33771;48.180;11.400;2023-08-31T08:06:40;15.50;99.90
48007;DHT22;33771;48.180;11.400;2023-08-31T08:09:05;15.70;99.90
48007;DHT22;33771;48.180;11.400;2023-08-31T08:11:31;15.80;99.90
48007;DHT22;33771;48.180;11.400;2023-08-31T08:13:57;15.80;99.90
48007;DHT22;33771;48.180;11.400;2023-08-31T08:16:23;15.90;99.90
48007;DHT22;33771;48.180;11.400;2023-08-31T08:18:50;16.00;99.90
48007;DHT22;33771;48.180;11.400;2023-08-31T08:21:15;15.90;99.90
48007;DHT22;33771;48.180;11.400;2023-08-31T08:23:41;15.90;99.90
48007;DHT22;33771;48.180;11.400;2023-08-31T08:26:06;15.90;99.90
48007;DHT22;33771;48.180;11.400;2023-08-31T08:28:33;15.90;99.90
48007;DHT22;33771;48.180;11.400;2023-08-31T08:31:02;15.90;99.90
48007;DHT22;33771;48.180;11.400;2023-08-31T08:33:31;15.90;99.90
48007;DHT22;33771;48.180;11.400;2023-08-31T08:35:57;16.00;99.90
48007;DHT22;33771;48.180;11.400;2023-08-31T08:38:22;16.10;99.90
48007;DHT22;33771;48.180;11.400;2023-08-31T08:40:48;16.20;99.90
48007;DHT22;33771;48.180;11.400;2023-08-31T08:43:14;16.20;99.90
48007;DHT22;33771;48.180;11.400;2023-08-31T08:45:39;16.30;99.90
48007;DHT22;33771;48.180;11.400;2023-08-31T08:48:08;16.30;99.90
48007;DHT22;33771;48.180;11.400;2023-08-31T08:50:35;16.30;99.90
48007;DHT22;33771;48.180;11.400;2023-08-31T08:53:03;16.40;99.90
48007;DHT22;33771;48.180;11.400;2023-08-31T08:55:28;16.60;99.90
48007;DHT22;33771;48.180;11.400;2023-08-31T08:57:55;16.70;99.90
48007;DHT22;33771;48.180;11.400;2023-08-31T09:00:20;16.70;99.90
48007;DHT22;33771;48.180;11.400;2023-08-31T09:02:46;16.70;99.90
48007;DHT22;33771;48.180;11.400;2023-08-31T09:05:12;16.70;99.90
48007;DHT22;33771;48.180;11.400;2023-08-31T09:07:38;16.60;99.90
48007;DHT22;33771;48.180;11.400;2023-08-31T09:10:05;16.50;99.90
48007;DHT22;33771;48.180;11.400;2023-08-31T09:12:30;16.40;99.90
48007;DHT22;33771;48.180;11.400;2023-08-31T09:14:59;16.40;99.90
48007;DHT22;33771;48.180;11.400;2023-08-31T09:17:25;16.40;99.90
48007;DHT22;33771;48.180;11.400;2023-08-31T09:20:01;16.40;99.90
48007;DHT22;33771;48.180;11.400;2023-08-31T09:22:29;16.40;99.90
48007;DHT22;33771;48.180;11.400;2023-08-31T09:24:54;16.50;99.90
48007;DHT22;33771;48.180;11.400;2023-08-31T09:27:20;16.50;99.90
48007;DHT22;33771;48.180;11.400;2023-08-31T09:29:48;16.60;99.90
48007;DHT22;33771;48.180;11.400;2023-08-31T09:32:18;16.60;99.90
48007;DHT22;33771;48.180;11.400;2023-08-31T09:34:43;16.70;99.90
48007;DHT22;33771;48.180;11.400;2023-08-31T09:37:09;16.70;99.90
48007;DHT22;33771;48.180;11.400;2023-08-31T09:39:39;16.80;99.90
48007;DHT22;33771;48.180;11.400;2023-08-31T09:42:05;16.80;99.90
48007;DHT22;33771;48.180;11.400;2023-08-31T09:44:31;16.80;99.90
48007;DHT22;33771;48.180;11.400;2023-08-31T09:46:57;16.80;99.90
48007;DHT22;33771;48.180;11.400;2023-08-31T09:49:24;16.80;99.90
48007;DHT22;33771;48.180;11.400;2023-08-31T09:51:51;16.90;99.90
48007;DHT22;33771;48.180;11.400;2023-08-31T09:54:19;16.80;99.90
48007;DHT22;33771;48.180;11.400;2023-08-31T09:56:47;16.80;99.90
48007;DHT22;33771;48.180;11.400;2023-08-31T09:59:14;16.70;99.90
48007;DHT22;33771;48.180;11.400;2023-08-31T10:01:43;16.80;99.90
48007;DHT22;33771;48.180;11.400;2023-08-31T10:04:09;16.70;99.90
48007;DHT22;33771;48.180;11.400;2023-08-31T10:06:36;16.60;99.90
48007;DHT22;33771;48.180;11.400;2023-08-31T10:09:04;16.60;99.90
48007;DHT22;33771;48.180;11.400;2023-08-31T10:11:30;16.60;99.90
48007;DHT22;33771;48.180;11.400;2023-08-31T10:13:58;16.60;99.90
48007;DHT22;33771;48.180;11.400;2023-08-31T10:16:25;16.60;99.90
48007;DHT22;33771;48.180;11.400;2023-08-31T10:18:52;16.60;99.90
48007;DHT22;33771;48.180;11.400;2023-08-31T10:21:18;16.80;99.90
48007;DHT22;33771;48.180;11.400;2023-08-31T10:23:50;16.90;99.90
48007;DHT22;33771;48.180;11.400;2023-08-31T10:26:27;17.00;99.90
48007;DHT22;33771;48.180;11.400;2023-08-31T10:28:53;17.20;99.90
48007;DHT22;33771;48.180;11.400;2023-08-31T10:31:20;17.20;99.90
48007;DHT22;33771;48.180;11.400;2023-08-31T10:36:40;17.20;99.90
48007;DHT22;33771;48.180;11.400;2023-08-31T10:41:39;17.10;99.90
48007;DHT22;33771;48.180;11.400;2023-08-31T10:44:22;16.80;99.90
48007;DHT22;33771;48.180;11.400;2023-08-31T10:46:49;16.60;99.90
48007;DHT22;33771;48.180;11.400;2023-08-31T10:49:17;16.60;99.90
48007;DHT22;33771;48.180;11.400;2023-08-31T10:51:56;16.80;99.90
48007;DHT22;33771;48.180;11.400;2023-08-31T10:54:24;17.00;99.90
48007;DHT22;33771;48.180;11.400;2023-08-31T10:59:45;17.40;99.90
48007;DHT22;33771;48.180;11.400;2023-08-31T11:07:29;17.40;99.90
48007;DHT22;33771;48.180;11.400;2023-08-31T11:12:52;17.40;99.90
48007;DHT22;33771;48.180;11.400;2023-08-31T11:15:21;17.60;99.90
48007;DHT22;33771;48.180;11.400;2023-08-31T11:17:49;17.70;99.90
48007;DHT22;33771;48.180;11.400;2023-08-31T11:20:17;17.90;99.90
48007;DHT22;33771;48.180;11.400;2023-08-31T11:22:45;17.90;99.90
48007;DHT22;33771;48.180;11.400;2023-08-31T11:25:13;17.80;99.90
48007;DHT22;33771;48.180;11.400;2023-08-31T11:27:39;17.70;99.90
48007;DHT22;33771;48.180;11.400;2023-08-31T11:30:15;17.60;99.90
48007;DHT22;33771;48.180;11.400;2023-08-31T11:32:47;17.50;99.90
48007;DHT22;33771;48.180;11.400;2023-08-31T11:35:15;17.40;99.90
48007;DHT22;33771;48.180;11.400;2023-08-31T11:37:43;17.40;99.90
48007;DHT22;33771;48.180;11.400;2023-08-31T11:40:09;17.30;99.90
48007;DHT22;33771;48.180;11.400;2023-08-31T11:42:35;17.30;99.90
48007;DHT22;33771;48.180;11.400;2023-08-31T11:45:01;17.40;99.90
48007;DHT22;33771;48.180;11.400;2023-08-31T11:47:31;17.50;99.90
48007;DHT22;33771;48.180;11.400;2023-08-31T11:49:56;17.60;99.90
48007;DHT22;33771;48.180;11.400;2023-08-31T11:52:22;17.60;99.90
48007;DHT22;33771;48.180;11.400;2023-08-31T11:54:52;17.60;99.90
48007;DHT22;33771;48.180;11.400;2023-08-31T11:57:18;17.70;99.90
48007;DHT22;33771;48.180;11.400;2023-08-31T11:59:44;17.90;99.90
48007;DHT22;33771;48.180;11.400;2023-08-31T12:02:10;18.10;99.90
48007;DHT22;33771;48.180;11.400;2023-08-31T12:04:45;18.40;99.90
48007;DHT22;33771;48.180;11.400;2023-08-31T12:07:12;18.80;99.90
48007;DHT22;33771;48.180;11.400;2023-08-31T12:09:41;19.40;99.90
48007;DHT22;33771;48.180;11.400;2023-08-31T12:12:07;19.70;99.90
48007;DHT22;33771;48.180;11.400;2023-08-31T12:14:36;19.80;99.90
48007;DHT22;33771;48.180;11.400;2023-08-31T12:17:09;20.00;99.90
48007;DHT22;33771;48.180;11.400;2023-08-31T12:19:38;20.30;99.90
48007;DHT22;33771;48.180;11.400;2023-08-31T12:22:07;20.60;99.90
48007;DHT22;33771;48.180;11.400;2023-08-31T12:24:41;20.80;99.90
48007;DHT22;33771;48.180;11.400;2023-08-31T12:27:07;20.80;99.90
48007;DHT22;33771;48.180;11.400;2023-08-31T12:29:33;20.70;99.90
48007;DHT22;33771;48.180;11.400;2023-08-31T12:31:59;20.50;99.90
48007;DHT22;33771;48.180;11.400;2023-08-31T12:34:24;20.20;99.90
48007;DHT22;33771;48.180;11.400;2023-08-31T12:36:51;20.10;99.90
48007;DHT22;33771;48.180;11.400;2023-08-31T12:39:17;19.90;99.90
48007;DHT22;33771;48.180;11.400;2023-08-31T12:41:43;19.70;99.90
48007;DHT22;33771;48.180;11.400;2023-08-31T12:44:09;19.40;99.90
48007;DHT22;33771;48.180;11.400;2023-08-31T12:46:34;19.20;99.90
48007;DHT22;33771;48.180;11.400;2023-08-31T12:49:01;19.00;99.90
48007;DHT22;33771;48.180;11.400;2023-08-31T12:51:28;18.80;99.90
48007;DHT22;33771;48.180;11.400;2023-08-31T12:53:53;18.70;99.90
48007;DHT22;33771;48.180;11.400;2023-08-31T12:56:19;18.60;99.90
48007;DHT22;33771;48.180;11.400;2023-08-31T12:58:51;18.50;99.90
48007;DHT22;33771;48.180;11.400;2023-08-31T13:01:19;18.30;99.90
48007;DHT22;33771;48.180;11.400;2023-08-31T13:03:45;18.30;99.90
48007;DHT22;33771;48.180;11.400;2023-08-31T13:06:12;18.30;99.90
48007;DHT22;33771;48.180;11.400;2023-08-31T13:08:38;18.30;99.90
48007;DHT22;33771;48.180;11.400;2023-08-31T13:11:03;18.30;99.90
48007;DHT22;33771;48.180;11.400;2023-08-31T13:13:30;18.10;99.90
48007;DHT22;33771;48.180;11.400;2023-08-31T13:15:57;17.90;99.90
48007;DHT22;33771;48.180;11.400;2023-08-31T13:18:22;17.80;99.90
48007;DHT22;33771;48.180;11.400;2023-08-31T13:20:52;17.70;99.90
48007;DHT22;33771;48.180;11.400;2023-08-31T13:23:19;17.60;99.90
48007;DHT22;33771;48.180;11.400;2023-08-31T13:25:45;17.60;99.90
48007;DHT22;33771;48.180;11.400;2023-08-31T13:28:10;17.70;99.90
48007;DHT22;33771;48.180;11.400;2023-08-31T13:30:36;17.80;99.90
48007;DHT22;33771;48.180;11.400;2023-08-31T13:33:01;18.00;99.90
48007;DHT22;33771;48.180;11.400;2023-08-31T13:35:29;18.10;99.90
48007;DHT22;33771;48.180;11.400;2023-08-31T13:37:55;18.20;99.90
48007;DHT22;33771;48.180;11.400;2023-08-31T13:40:20;18.30;99.90
48007;DHT22;33771;48.180;11.400;2023-08-31T13:42:57;18.50;99.90
48007;DHT22;33771;48.180;11.400;2023-08-31T13:45:25;18.60;99.90
48007;DHT22;33771;48.180;11.400;2023-08-31T13:47:50;18.80;99.90
48007;DHT22;33771;48.180;11.400;2023-08-31T13:50:16;18.90;99.90
48007;DHT22;33771;48.180;11.400;2023-08-31T13:52:42;19.00;99.90
48007;DHT22;33771;48.180;11.400;2023-08-31T13:55:07;19.30;99.90
48007;DHT22;33771;48.180;11.400;2023-08-31T13:57:33;19.40;99.90
48007;DHT22;33771;48.180;11.400;2023-08-31T13:59:59;19.50;99.90
48007;DHT22;33771;48.180;11.400;2023-08-31T14:02:25;19.60;99.90
48007;DHT22;33771;48.180;11.400;2023-08-31T14:04:51;19.40;99.90
48007;DHT22;33771;48.180;11.400;2023-08-31T14:07:18;19.30;99.90
48007;DHT22;33771;48.180;11.400;2023-08-31T14:09:43;19.10;99.90
48007;DHT22;33771;48.180;11.400;2023-08-31T14:12:09;19.00;99.90
48007;DHT22;33771;48.180;11.400;2023-08-31T14:14:34;18.90;99.90
48007;DHT22;33771;48.180;11.400;2023-08-31T14:17:00;18.90;99.90
48007;DHT22;33771;48.180;11.400;2023-08-31T14:19:25;18.80;99.90
48007;DHT22;33771;48.180;11.400;2023-08-31T14:21:51;18.70;99.90
48007;DHT22;33771;48.180;11.400;2023-08-31T14:24:18;18.60;99.90
48007;DHT22;33771;48.180;11.400;2023-08-31T14:26:44;18.50;99.90
48007;DHT22;33771;48.180;11.400;2023-08-31T14:29:10;18.40;99.90
48007;DHT22;33771;48.180;11.400;2023-08-31T14:31:36;18.50;99.90
48007;DHT22;33771;48.180;11.400;2023-08-31T14:34:01;18.70;99.90
48007;DHT22;33771;48.180;11.400;2023-08-31T14:36:27;18.70;99.90
48007;DHT22;33771;48.180;11.400;2023-08-31T14:38:53;18.60;99.90
48007;DHT22;33771;48.180;11.400;2023-08-31T14:41:18;18.70;99.90
48007;DHT22;33771;48.180;11.400;2023-08-31T14:43:44;18.70;99.90
48007;DHT22;33771;48.180;11.400;2023-08-31T14:46:09;18.80;99.90
48007;DHT22;33771;48.180;11.400;2023-08-31T14:48:35;18.90;99.90
48007;DHT22;33771;48.180;11.400;2023-08-31T14:51:00;18.90;99.90
48007;DHT22;33771;48.180;11.400;2023-08-31T14:53:26;18.90;99.90
48007;DHT22;33771;48.180;11.400;2023-08-31T14:55:52;18.90;99.90
48007;DHT22;33771;48.180;11.400;2023-08-31T14:58:18;18.90;99.90
48007;DHT22;33771;48.180;11.400;2023-08-31T15:00:44;19.00;99.90
48007;DHT22;33771;48.180;11.400;2023-08-31T15:03:10;19.00;99.90
48007;DHT22;33771;48.180;11.400;2023-08-31T15:05:36;19.00;99.90
48007;DHT22;33771;48.180;11.400;2023-08-31T15:08:04;19.00;99.90
48007;DHT22;33771;48.180;11.400;2023-08-31T15:10:29;19.00;99.90
48007;DHT22;33771;48.180;11.400;2023-08-31T15:12:55;19.00;99.90
48007;DHT22;33771;48.180;11.400;2023-08-31T15:15:27;19.00;99.90
48007;DHT22;33771;48.180;11.400;2023-08-31T15:17:53;19.00;99.90
48007;DHT22;33771;48.180;11.400;2023-08-31T15:20:19;19.00;99.90
48007;DHT22;33771;48.180;11.400;2023-08-31T15:22:44;19.00;99.90
48007;DHT22;33771;48.180;11.400;2023-08-31T15:25:10;18.90;99.90
48007;DHT22;33771;48.180;11.400;2023-08-31T15:27:35;18.90;99.90
48007;DHT22;33771;48.180;11.400;2023-08-31T15:30:01;18.80;99.90
48007;DHT22;33771;48.180;11.400;2023-08-31T15:32:28;18.80;99.90
48007;DHT22;33771;48.180;11.400;2023-08-31T15:34:54;18.70;99.90
48007;DHT22;33771;48.180;11.400;2023-08-31T15:37:20;18.60;99.90